createdAt,value
2024-02-18T00:00:06.144Z,101678.81
2024-02-18T00:02:36.286Z,101677.13
2024-02-18T00:05:05.885Z,101681.59
2024-02-18T00:07:33.285Z,101675.72
2024-02-18T00:10:00.272Z,101674.75
2024-02-18T00:12:27.142Z,101687.09
2024-02-18T00:14:53.963Z,101687.09
2024-02-18T00:17:20.699Z,101678.25
2024-02-18T00:19:47.762Z,101678.38
2024-02-18T00:22:14.712Z,101691.75
2024-02-18T00:24:41.695Z,101684.63
2024-02-18T00:27:10.814Z,101680.25
2024-02-18T00:29:37.681Z,101682.81
2024-02-18T00:32:04.715Z,101679.22
2024-02-18T00:34:31.914Z,101677.81
2024-02-18T00:36:58.947Z,101677.03
2024-02-18T00:39:25.983Z,101672.56
2024-02-18T00:41:52.768Z,101675.16
2024-02-18T00:44:20.783Z,101667.25
2024-02-18T00:46:57.153Z,101662.78
2024-02-18T00:49:30.802Z,101659.47
2024-02-18T00:51:57.668Z,101670.00
2024-02-18T00:54:24.557Z,101661.38
2024-02-18T00:56:51.521Z,101666.59
2024-02-18T00:59:18.396Z,101661.28
2024-02-18T01:01:45.433Z,101656.81
2024-02-18T01:04:12.476Z,101665.91
2024-02-18T01:06:39.910Z,101660.41
2024-02-18T01:09:06.692Z,101665.06
2024-02-18T01:11:33.604Z,101659.09
2024-02-18T01:14:00.421Z,101659.09
2024-02-18T01:16:30.233Z,101654.13
2024-02-18T01:18:57.396Z,101662.88
2024-02-18T01:21:24.329Z,101662.78
2024-02-18T01:23:51.165Z,101654.91
2024-02-18T01:26:17.900Z,101656.13
2024-02-18T01:28:44.635Z,101656.78
2024-02-18T01:31:11.410Z,101652.44
2024-02-18T01:33:38.408Z,101652.53
2024-02-18T01:36:05.647Z,101650.91
2024-02-18T01:38:33.748Z,101649.22
2024-02-18T01:41:00.602Z,101643.22
2024-02-18T01:43:27.605Z,101650.25
2024-02-18T01:45:54.370Z,101646.63
2024-02-18T01:48:21.818Z,101649.56
2024-02-18T01:50:49.157Z,101649.75
2024-02-18T01:53:16.286Z,101654.31
2024-02-18T01:55:43.489Z,101655.47
2024-02-18T01:58:10.359Z,101656.50
2024-02-18T02:00:40.412Z,101663.50
2024-02-18T02:03:08.476Z,101659.81
2024-02-18T02:05:39.411Z,101652.03
2024-02-18T02:08:06.766Z,101653.56
2024-02-18T02:10:33.876Z,101646.06
2024-02-18T02:13:00.993Z,101651.38
2024-02-18T02:15:27.933Z,101648.78
2024-02-18T02:17:54.866Z,101644.34
2024-02-18T02:20:21.761Z,101639.88
2024-02-18T02:22:48.497Z,101630.13
2024-02-18T02:25:15.786Z,101631.91
2024-02-18T02:27:43.922Z,101626.78
2024-02-18T02:30:11.224Z,101630.47
2024-02-18T02:32:38.075Z,101632.19
2024-02-18T02:35:05.457Z,101629.53
2024-02-18T02:37:32.882Z,101633.03
2024-02-18T02:39:59.820Z,101633.81
2024-02-18T02:42:27.285Z,101635.78
2024-02-18T02:44:54.025Z,101623.47
2024-02-18T02:47:20.847Z,101632.19
2024-02-18T02:49:47.797Z,101623.47
2024-02-18T02:52:14.940Z,101626.13
2024-02-18T02:54:41.763Z,101626.13
2024-02-18T02:57:08.758Z,101624.31
2024-02-18T02:59:35.492Z,101618.16
2024-02-18T03:02:02.318Z,101616.34
2024-02-18T03:04:29.232Z,101616.16
2024-02-18T03:06:56.148Z,101615.56
2024-02-18T03:09:23.012Z,101604.00
2024-02-18T03:11:49.909Z,101604.09
2024-02-18T03:14:16.715Z,101602.28
2024-02-18T03:16:44.445Z,101599.75
2024-02-18T03:19:12.593Z,101601.50
2024-02-18T03:21:39.940Z,101605.97
2024-02-18T03:24:06.793Z,101599.16
2024-02-18T03:26:33.751Z,101595.81
2024-02-18T03:29:00.565Z,101604.63
2024-02-18T03:31:27.306Z,101601.13
2024-02-18T03:33:54.210Z,101598.66
2024-02-18T03:36:21.027Z,101595.16
2024-02-18T03:38:47.863Z,101594.31
2024-02-18T03:41:14.894Z,101592.59
2024-02-18T03:43:41.697Z,101589.09
2024-02-18T03:46:09.716Z,101595.25
2024-02-18T03:48:36.957Z,101585.66
2024-02-18T03:51:03.734Z,101597.13
2024-02-18T03:53:30.466Z,101589.34
2024-02-18T03:55:57.214Z,101588.44
2024-02-18T03:58:24.708Z,101589.47
2024-02-18T04:00:51.772Z,101590.41
2024-02-18T04:03:18.604Z,101586.13
2024-02-18T04:05:45.615Z,101589.88
2024-02-18T04:08:12.654Z,101591.88
2024-02-18T04:10:39.370Z,101585.91
2024-02-18T04:13:06.065Z,101589.50
2024-02-18T04:15:32.919Z,101585.38
2024-02-18T04:17:59.824Z,101591.06
2024-02-18T04:20:26.601Z,101579.69
2024-02-18T04:22:53.370Z,101576.25
2024-02-18T04:25:20.211Z,101577.22
2024-02-18T04:27:47.063Z,101579.09
2024-02-18T04:30:14.196Z,101583.81
2024-02-18T04:32:41.212Z,101575.28
2024-02-18T04:35:08.252Z,101581.34
2024-02-18T04:37:35.169Z,101583.50
2024-02-18T04:40:02.143Z,101576.38
2024-02-18T04:42:28.909Z,101579.41
2024-02-18T04:44:55.746Z,101579.47
2024-02-18T04:47:23.865Z,101581.28
2024-02-18T04:49:50.854Z,101576.75
2024-02-18T04:52:17.648Z,101570.06
2024-02-18T04:54:44.621Z,101576.16
2024-02-18T04:57:11.557Z,101571.97
2024-02-18T04:59:38.613Z,101570.44
2024-02-18T05:02:05.796Z,101571.19
2024-02-18T05:04:33.412Z,101574.72
2024-02-18T05:07:01.182Z,101570.88
2024-02-18T05:09:28.168Z,101568.22
2024-02-18T05:11:55.619Z,101565.56
2024-02-18T05:14:22.791Z,101570.38
2024-02-18T05:16:49.759Z,101568.75
2024-02-18T05:19:17.470Z,101557.63
2024-02-18T05:21:44.441Z,101567.19
2024-02-18T05:24:11.350Z,101571.06
2024-02-18T05:26:38.132Z,101562.25
2024-02-18T05:29:04.877Z,101556.16
2024-02-18T05:31:31.650Z,101555.50
2024-02-18T05:33:58.925Z,101552.31
2024-02-18T05:36:25.907Z,101555.94
2024-02-18T05:38:52.811Z,101559.09
2024-02-18T05:41:19.568Z,101555.41
2024-02-18T05:43:46.410Z,101550.28
2024-02-18T05:46:13.259Z,101556.84
2024-02-18T05:48:40.703Z,101549.69
2024-02-18T05:51:08.736Z,101542.66
2024-02-18T05:53:35.919Z,101537.28
2024-02-18T05:56:02.763Z,101530.34
2024-02-18T05:58:29.762Z,101534.88
2024-02-18T06:00:56.868Z,101541.03
2024-02-18T06:03:23.781Z,101546.69
2024-02-18T06:05:50.734Z,101549.56
2024-02-18T06:08:17.815Z,101539.81
2024-02-18T06:10:44.813Z,101545.84
2024-02-18T06:13:11.984Z,101539.66
2024-02-18T06:15:38.906Z,101536.25
2024-02-18T06:18:06.022Z,101539.50
2024-02-18T06:20:32.774Z,101532.31
2024-02-18T06:22:59.613Z,101535.22
2024-02-18T06:25:26.461Z,101536.06
2024-02-18T06:27:53.502Z,101532.72
2024-02-18T06:30:20.478Z,101537.88
2024-02-18T06:32:47.311Z,101532.72
2024-02-18T06:35:14.206Z,101531.69
2024-02-18T06:37:42.919Z,101536.75
2024-02-18T06:40:11.219Z,101532.06
2024-02-18T06:42:38.187Z,101531.28
2024-02-18T06:45:05.298Z,101543.69
2024-02-18T06:47:32.408Z,101534.34
2024-02-18T06:49:59.524Z,101542.06
2024-02-18T06:52:26.369Z,101533.44
2024-02-18T06:54:53.188Z,101533.25
2024-02-18T06:57:20.037Z,101527.09
2024-02-18T06:59:46.750Z,101526.25
2024-02-18T07:02:13.716Z,101531.81
2024-02-18T07:04:40.649Z,101532.06
2024-02-18T07:07:07.509Z,101526.69
2024-02-18T07:09:34.274Z,101525.91
2024-02-18T07:12:01.252Z,101525.56
2024-02-18T07:14:27.982Z,101519.34
2024-02-18T07:16:54.750Z,101513.59
2024-02-18T07:19:21.586Z,101516.75
2024-02-18T07:21:48.424Z,101520.09
2024-02-18T07:24:15.197Z,101518.97
2024-02-18T07:26:41.954Z,101514.63
2024-02-18T07:29:08.742Z,101519.41
2024-02-18T07:31:38.346Z,101520.84
2024-02-18T07:34:06.049Z,101524.97
2024-02-18T07:36:34.442Z,101522.41
2024-02-18T07:39:01.301Z,101513.50
2024-02-18T07:41:28.036Z,101515.03
2024-02-18T07:43:54.878Z,101515.28
2024-02-18T07:46:22.006Z,101518.66
2024-02-18T07:48:48.956Z,101516.91
2024-02-18T07:51:15.766Z,101508.19
2024-02-18T07:53:42.584Z,101504.44
2024-02-18T07:56:09.688Z,101523.94
2024-02-18T07:58:36.478Z,101519.25
2024-02-18T08:01:03.326Z,101527.34
2024-02-18T08:03:30.153Z,101511.78
2024-02-18T08:05:56.957Z,101511.38
2024-02-18T08:08:23.879Z,101513.66
2024-02-18T08:10:51.040Z,101509.50
2024-02-18T08:13:18.108Z,101507.50
2024-02-18T08:15:45.172Z,101503.16
2024-02-18T08:18:12.162Z,101510.53
2024-02-18T08:20:41.908Z,101505.72
2024-02-18T08:23:09.165Z,101504.38
2024-02-18T08:25:36.566Z,101491.00
2024-02-18T08:28:04.051Z,101499.66
2024-02-18T08:30:30.916Z,101495.88
2024-02-18T08:32:57.732Z,101497.16
2024-02-18T08:35:24.719Z,101485.78
2024-02-18T08:37:51.981Z,101491.94
2024-02-18T08:40:18.999Z,101487.22
2024-02-18T08:42:46.015Z,101485.41
2024-02-18T08:45:12.830Z,101488.84
2024-02-18T08:47:39.683Z,101476.53
2024-02-18T08:50:07.391Z,101477.28
2024-02-18T08:52:34.376Z,101468.91
2024-02-18T08:55:01.297Z,101467.97
2024-02-18T08:57:28.289Z,101459.94
2024-02-18T08:59:56.365Z,101459.16
2024-02-18T09:02:23.108Z,101458.19
2024-02-18T09:04:50.369Z,101450.81
2024-02-18T09:07:17.359Z,101448.88
2024-02-18T09:09:44.192Z,101444.22
2024-02-18T09:12:11.001Z,101437.59
2024-02-18T09:14:37.729Z,101441.94
2024-02-18T09:17:04.534Z,101431.34
2024-02-18T09:19:31.363Z,101434.75
2024-02-18T09:21:58.458Z,101442.66
2024-02-18T09:24:27.882Z,101433.66
2024-02-18T09:27:32.280Z,101438.84
2024-02-18T09:29:59.085Z,101440.19
2024-02-18T09:32:25.895Z,101433.91
2024-02-18T09:34:52.995Z,101429.19
2024-02-18T09:37:20.103Z,101431.69
2024-02-18T09:39:46.917Z,101423.59
2024-02-18T09:42:14.181Z,101418.03
2024-02-18T09:44:43.425Z,101420.59
2024-02-18T09:47:13.595Z,101420.28
2024-02-18T09:49:40.644Z,101411.38
2024-02-18T09:52:07.704Z,101404.06
2024-02-18T09:54:35.492Z,101403.03
2024-02-18T09:57:02.501Z,101403.75
2024-02-18T09:59:29.687Z,101402.69
2024-02-18T10:02:00.749Z,101392.94
2024-02-18T10:04:27.607Z,101394.53
2024-02-18T10:06:55.493Z,101391.03
2024-02-18T10:09:24.979Z,101389.13
2024-02-18T10:11:53.006Z,101380.09
2024-02-18T10:14:24.253Z,101379.06
2024-02-18T10:16:51.125Z,101371.75
2024-02-18T10:19:18.018Z,101372.59
2024-02-18T10:21:45.272Z,101368.91
2024-02-18T10:24:13.335Z,101368.81
2024-02-18T10:26:40.036Z,101358.84
2024-02-18T10:29:06.864Z,101356.09
2024-02-18T10:31:34.254Z,101350.59
2024-02-18T10:34:01.293Z,101350.38
2024-02-18T10:36:31.317Z,101339.66
2024-02-18T10:38:59.353Z,101336.91
2024-02-18T10:41:33.877Z,101334.16
2024-02-18T10:44:01.893Z,101330.34
2024-02-18T10:46:28.743Z,101319.59
2024-02-18T10:49:02.332Z,101313.34
2024-02-18T10:51:39.145Z,101320.28
2024-02-18T10:54:41.513Z,101313.25
2024-02-18T10:57:08.358Z,101309.16
2024-02-18T11:00:08.852Z,101308.38
2024-02-18T11:03:01.775Z,101300.22
2024-02-18T11:09:42.680Z,101289.16
2024-02-18T11:12:10.253Z,101282.78
2024-02-18T11:14:38.428Z,101281.09
2024-02-18T11:17:05.268Z,101272.91
2024-02-18T11:19:35.485Z,101274.72
2024-02-18T11:22:02.963Z,101269.19
2024-02-18T11:24:30.245Z,101271.75
2024-02-18T11:26:57.010Z,101263.56
2024-02-18T11:29:23.728Z,101257.28
2024-02-18T11:31:51.443Z,101242.09
2024-02-18T11:34:18.302Z,101240.19
2024-02-18T11:36:45.190Z,101232.31
2024-02-18T11:39:11.991Z,101228.72
2024-02-18T11:41:38.775Z,101230.41
2024-02-18T11:44:12.363Z,101219.97
2024-02-18T11:46:41.604Z,101221.59
2024-02-18T11:49:08.639Z,101210.94
2024-02-18T11:51:35.700Z,101213.50
2024-02-18T11:54:02.695Z,101207.22
2024-02-18T11:56:29.810Z,101200.94
2024-02-18T11:58:56.588Z,101194.78
2024-02-18T12:01:26.912Z,101185.00
2024-02-18T12:03:57.306Z,101180.56
2024-02-18T12:06:24.899Z,101172.44
2024-02-18T12:08:51.940Z,101172.44
2024-02-18T12:11:18.856Z,101167.88
2024-02-18T12:13:45.725Z,101166.72
2024-02-18T12:16:12.878Z,101168.41
2024-02-18T12:18:40.258Z,101158.41
2024-02-18T12:21:08.182Z,101160.00
2024-02-18T12:23:41.042Z,101154.56
2024-02-18T12:26:07.828Z,101156.06
2024-02-18T12:28:34.523Z,101155.84
2024-02-18T12:31:01.287Z,101146.91
2024-02-18T12:33:28.217Z,101151.28
2024-02-18T12:35:55.135Z,101145.97
2024-02-18T12:38:22.257Z,101148.50
2024-02-18T12:40:55.410Z,101148.63
2024-02-18T12:43:55.501Z,101140.66
2024-02-18T12:46:11.210Z,101127.34
2024-02-18T12:48:38.525Z,101132.44
2024-02-18T12:51:13.617Z,101123.72
2024-02-18T12:53:41.815Z,101119.88
2024-02-18T12:56:09.920Z,101120.72
2024-02-18T12:58:39.998Z,101124.97
2024-02-18T13:01:08.184Z,101124.97
2024-02-18T13:03:35.664Z,101129.47
2024-02-18T13:06:03.512Z,101124.97
2024-02-18T13:08:30.565Z,101124.13
2024-02-18T13:10:57.794Z,101117.84
2024-02-18T13:13:24.704Z,101122.31
2024-02-18T13:15:54.663Z,101114.34
2024-02-18T13:18:21.547Z,101105.19
2024-02-18T13:20:48.450Z,101097.00
2024-02-18T13:23:15.212Z,101098.81
2024-02-18T13:25:41.962Z,101088.88
2024-02-18T13:28:09.310Z,101084.44
2024-02-18T13:30:36.208Z,101081.66
2024-02-18T13:33:03.420Z,101059.41
2024-02-18T13:35:30.274Z,101050.47
2024-02-18T13:37:57.068Z,101055.56
2024-02-18T13:40:23.900Z,101051.06
2024-02-18T13:42:50.718Z,101043.00
2024-02-18T13:45:18.445Z,101039.59
2024-02-18T13:47:45.834Z,101035.00
2024-02-18T13:50:12.893Z,101020.88
2024-02-18T13:52:39.679Z,101019.88
2024-02-18T13:55:06.822Z,101021.59
2024-02-18T13:57:33.707Z,101018.06
2024-02-18T14:00:00.568Z,101017.22
2024-02-18T14:02:27.302Z,101009.47
2024-02-18T14:04:54.052Z,101009.38
2024-02-18T14:07:21.909Z,101008.63
2024-02-18T14:09:50.145Z,101005.25
2024-02-18T14:12:17.205Z,100999.06
2024-02-18T14:14:49.399Z,101003.75
2024-02-18T14:17:16.560Z,100996.75
2024-02-18T14:19:43.690Z,100984.44
2024-02-18T14:22:10.989Z,100987.09
2024-02-18T14:24:37.829Z,100996.25
2024-02-18T14:27:04.625Z,101001.56
2024-02-18T14:29:31.467Z,101005.19
2024-02-18T14:31:59.956Z,100995.41
2024-02-18T14:34:28.175Z,100996.34
2024-02-18T14:36:55.036Z,100988.38
2024-02-18T14:39:21.720Z,100986.78
2024-02-18T14:41:48.428Z,100995.63
2024-02-18T14:44:15.250Z,100994.75
2024-02-18T14:46:42.025Z,100989.56
2024-02-18T14:49:09.573Z,100996.69
2024-02-18T14:51:36.477Z,100984.34
2024-02-18T14:54:03.268Z,100990.75
2024-02-18T14:56:30.330Z,100996.91
2024-02-18T14:58:57.286Z,100991.22
2024-02-18T15:01:24.268Z,100987.47
2024-02-18T15:03:51.277Z,100984.91
2024-02-18T15:06:18.169Z,100979.09
2024-02-18T15:08:45.153Z,100978.00
2024-02-18T15:11:12.026Z,100969.94
2024-02-18T15:13:39.459Z,100969.06
2024-02-18T15:16:06.873Z,100964.94
2024-02-18T15:18:34.304Z,100959.63
2024-02-18T15:21:01.220Z,100955.16
2024-02-18T15:23:28.119Z,100952.59
2024-02-18T15:25:54.848Z,100950.06
2024-02-18T15:28:21.602Z,100963.59
2024-02-18T15:30:48.433Z,100958.16
2024-02-18T15:33:15.287Z,100954.66
2024-02-18T15:35:45.345Z,100960.94
2024-02-18T15:38:12.079Z,100957.31
2024-02-18T15:40:38.925Z,100944.09
2024-02-18T15:43:06.724Z,100951.97
2024-02-18T15:45:33.943Z,100959.22
2024-02-18T15:48:00.866Z,100952.09
2024-02-18T15:50:27.651Z,100957.31
2024-02-18T15:52:54.681Z,100948.81
2024-02-18T15:55:22.437Z,100950.28
2024-02-18T15:57:51.167Z,100942.53
2024-02-18T16:00:18.235Z,100948.59
2024-02-18T16:02:45.063Z,100942.66
2024-02-18T16:05:11.897Z,100927.44
2024-02-18T16:07:41.953Z,100931.78
2024-02-18T16:10:09.469Z,100928.28
2024-02-18T16:12:36.303Z,100929.13
2024-02-18T16:15:03.208Z,100925.63
2024-02-18T16:17:30.290Z,100911.34
2024-02-18T16:19:57.516Z,100919.56
2024-02-18T16:22:24.362Z,100907.97
2024-02-18T16:24:51.209Z,100904.47
2024-02-18T16:27:18.064Z,100901.94
2024-02-18T16:29:44.842Z,100895.66
2024-02-18T16:32:13.208Z,100895.75
2024-02-18T16:34:40.613Z,100896.72
2024-02-18T16:37:07.871Z,100896.72
2024-02-18T16:39:36.619Z,100896.72
2024-02-18T16:42:04.178Z,100888.84
2024-02-18T16:44:31.133Z,100887.25
2024-02-18T16:47:01.202Z,100884.59
2024-02-18T16:49:28.296Z,100881.09
2024-02-18T16:51:59.478Z,100882.81
2024-02-18T16:54:26.605Z,100883.66
2024-02-18T16:56:53.359Z,100870.47
2024-02-18T16:59:20.143Z,100883.75
2024-02-18T17:01:51.641Z,100880.38
2024-02-18T17:04:19.247Z,100887.41
2024-02-18T17:06:46.364Z,100874.22
2024-02-18T17:09:13.447Z,100881.34
2024-02-18T17:11:40.514Z,100879.53
2024-02-18T17:14:07.303Z,100875.28
2024-02-18T17:16:37.289Z,100877.84
2024-02-18T17:19:08.165Z,100880.50
2024-02-18T17:21:35.276Z,100878.69
2024-02-18T17:24:05.239Z,100890.28
2024-02-18T17:26:32.572Z,100894.63
2024-02-18T17:28:59.632Z,100895.59
2024-02-18T17:31:27.375Z,100894.00
2024-02-18T17:33:57.263Z,100894.97
2024-02-18T17:36:24.548Z,100897.75
2024-02-18T17:38:51.283Z,100907.41
2024-02-18T17:41:18.260Z,100890.72
2024-02-18T17:43:45.008Z,100892.53
2024-02-18T17:46:11.926Z,100897.00
2024-02-18T17:48:39.666Z,100888.19
2024-02-18T17:51:07.597Z,100881.16
2024-02-18T17:53:35.734Z,100891.78
2024-02-18T17:56:02.646Z,100888.28
2024-02-18T17:58:30.976Z,100878.72
2024-02-18T18:00:57.903Z,100881.50
2024-02-18T18:03:24.717Z,100877.16
2024-02-18T18:05:51.663Z,100883.31
2024-02-18T18:08:18.459Z,100879.81
2024-02-18T18:10:45.275Z,100879.81
2024-02-18T18:13:12.274Z,100881.84
2024-02-18T18:15:39.333Z,100870.34
2024-02-18T18:18:06.370Z,100867.59
2024-02-18T18:20:33.513Z,100872.91
2024-02-18T18:23:00.358Z,100870.16
2024-02-18T18:25:27.128Z,100869.19
2024-02-18T18:27:54.003Z,100871.22
2024-02-18T18:30:20.879Z,100868.78
2024-02-18T18:32:48.614Z,100869.00
2024-02-18T18:35:15.500Z,100869.84
2024-02-18T18:37:42.506Z,100872.63
2024-02-18T18:40:09.875Z,100869.00
2024-02-18T18:42:38.017Z,100867.09
2024-02-18T18:45:08.498Z,100858.59
2024-02-18T18:47:36.081Z,100863.81
2024-02-18T18:50:05.973Z,100860.28
2024-02-18T18:52:33.634Z,100862.09
2024-02-18T18:55:00.815Z,100864.75
2024-02-18T18:57:28.419Z,100857.00
2024-02-18T18:59:55.166Z,100856.91
2024-02-18T19:02:21.981Z,100859.66
2024-02-18T19:04:49.422Z,100858.84
2024-02-18T19:07:18.792Z,100850.84
2024-02-18T19:09:45.594Z,100852.78
2024-02-18T19:12:12.408Z,100854.59
2024-02-18T19:14:39.099Z,100849.16
2024-02-18T19:17:05.882Z,100844.06
2024-02-18T19:19:32.741Z,100846.72
2024-02-18T19:22:00.980Z,100851.66
2024-02-18T19:24:27.986Z,100843.22
2024-02-18T19:26:54.666Z,100849.41
2024-02-18T19:29:23.629Z,100828.81
2024-02-18T19:31:52.755Z,100835.91
2024-02-18T19:34:19.673Z,100842.81
2024-02-18T19:36:51.213Z,100830.50
2024-02-18T19:39:18.304Z,100832.13
2024-02-18T19:41:46.577Z,100831.47
2024-02-18T19:44:13.616Z,100828.50
2024-02-18T19:46:41.918Z,100832.41
2024-02-18T19:49:09.322Z,100836.78
2024-02-18T19:51:36.152Z,100832.88
2024-02-18T19:54:02.984Z,100827.78
2024-02-18T19:56:30.202Z,100823.88
2024-02-18T19:58:57.055Z,100819.19
2024-02-18T20:01:24.196Z,100826.91
2024-02-18T20:03:51.523Z,100816.22
2024-02-18T20:06:18.605Z,100827.28
2024-02-18T20:08:45.625Z,100806.75
2024-02-18T20:11:12.452Z,100805.84
2024-02-18T20:13:39.149Z,100822.91
2024-02-18T20:16:06.366Z,100814.97
2024-02-18T20:18:33.773Z,100816.47
2024-02-18T20:21:02.825Z,100817.53
2024-02-18T20:23:29.639Z,100817.53
2024-02-18T20:25:56.430Z,100813.56
2024-02-18T20:28:23.399Z,100810.72
2024-02-18T20:30:50.570Z,100812.63
2024-02-18T20:33:17.491Z,100823.44
2024-02-18T20:35:45.410Z,100810.28
2024-02-18T20:38:12.195Z,100817.63
2024-02-18T20:40:39.108Z,100816.47
2024-02-18T20:43:06.027Z,100822.84
2024-02-18T20:45:33.435Z,100830.25
2024-02-18T20:48:00.498Z,100832.25
2024-02-18T20:50:27.366Z,100833.47
2024-02-18T20:52:54.160Z,100834.31
2024-02-18T20:55:23.566Z,100837.91
2024-02-18T20:57:50.944Z,100832.50
2024-02-18T21:00:18.054Z,100837.06
2024-02-18T21:02:45.521Z,100838.13
2024-02-18T21:05:13.463Z,100842.25
2024-02-18T21:07:40.550Z,100849.47
2024-02-18T21:10:07.810Z,100841.28
2024-02-18T21:12:35.178Z,100849.03
2024-02-18T21:15:02.181Z,100855.94
2024-02-18T21:17:29.248Z,100850.63
2024-02-18T21:19:56.359Z,100847.88
2024-02-18T21:22:23.302Z,100860.91
2024-02-18T21:24:50.154Z,100859.25
2024-02-18T21:27:16.942Z,100854.16
2024-02-18T21:29:43.778Z,100851.38
2024-02-18T21:32:11.915Z,100852.22
2024-02-18T21:34:39.112Z,100848.63
2024-02-18T21:37:06.042Z,100829.19
2024-02-18T21:39:41.012Z,100849.34
2024-02-18T21:42:14.747Z,100850.31
2024-02-18T21:44:41.721Z,100850.94
2024-02-18T21:47:08.525Z,100844.03
2024-02-18T21:49:36.203Z,100840.44
2024-02-18T21:52:03.997Z,100855.84
2024-02-18T21:54:31.062Z,100843.31
2024-02-18T21:56:58.025Z,100840.66
2024-02-18T21:59:25.005Z,100835.25
2024-02-18T22:01:53.308Z,100847.03
2024-02-18T22:04:20.682Z,100840.75
2024-02-18T22:06:59.599Z,100834.59
2024-02-18T22:09:34.471Z,100838.09
2024-02-18T22:12:01.199Z,100837.91
2024-02-18T22:14:28.096Z,100825.47
2024-02-18T22:16:54.992Z,100834.38
2024-02-18T22:19:21.895Z,100829.19
2024-02-18T22:21:48.814Z,100826.31
2024-02-18T22:24:15.709Z,100836.81
2024-02-18T22:26:42.596Z,100829.81
2024-02-18T22:29:09.506Z,100824.63
2024-02-18T22:31:36.287Z,100814.84
2024-02-18T22:34:03.277Z,100827.88
2024-02-18T22:36:30.169Z,100838.50
2024-02-18T22:38:57.214Z,100831.84
2024-02-18T22:41:24.030Z,100828.97
2024-02-18T22:43:50.759Z,100820.88
2024-02-18T22:46:17.750Z,100817.59
2024-02-18T22:48:44.696Z,100814.94
2024-02-18T22:51:11.577Z,100812.06
2024-02-18T22:53:42.145Z,100815.56
2024-02-18T22:56:09.536Z,100825.31
2024-02-18T22:58:37.124Z,100825.31
2024-02-18T23:01:04.654Z,100819.19
2024-02-18T23:03:31.466Z,100825.31
2024-02-18T23:05:58.250Z,100815.69
2024-02-18T23:08:25.299Z,100824.47
2024-02-18T23:10:52.238Z,100827.28
2024-02-18T23:13:19.303Z,100825.22
2024-02-18T23:15:46.490Z,100830.03
2024-02-18T23:18:13.366Z,100831.84
2024-02-18T23:20:40.624Z,100824.28
2024-02-18T23:23:07.870Z,100830.03
2024-02-18T23:25:34.758Z,100821.22
2024-02-18T23:28:01.600Z,100815.91
2024-02-18T23:30:28.405Z,100822.81
2024-02-18T23:32:55.645Z,100812.19
2024-02-18T23:35:25.216Z,100818.56
2024-02-18T23:37:52.140Z,100811.44
2024-02-18T23:40:19.136Z,100811.66
2024-02-18T23:42:46.030Z,100817.59
2024-02-18T23:45:12.819Z,100803.25
2024-02-18T23:47:39.674Z,100799.84
2024-02-18T23:50:07.106Z,100809.53
2024-02-18T23:52:33.961Z,100814.09
2024-02-18T23:55:00.806Z,100815.69
2024-02-18T23:57:27.820Z,100817.59
2024-02-18T23:59:54.741Z,100811.53
